Time;durP1;ratioP1;P1;durP2;ratioP2;P2;SDS_P1;SDS_P2;PMS_P1;PMS_P2;Temp;Humidity;BMP_temperature;BMP_pressure;BME280_temperature;BME280_humidity;BME280_pressure;Samples;Min_cycle;Max_cycle;Signal;HPM_P1;HPM_P2
2022/07/18 00:00:40;;;;;;;2.55;1.67;;;;;;;;;;5052199;28;20040;-37
2022/07/18 00:03:06;;;;;;;2.75;1.65;;;;;;;;;;5052215;28;20045;-38
2022/07/18 00:05:32;;;;;;;7.15;2.10;;;;;;;;;;5052854;28;20025;-38
2022/07/18 00:07:58;;;;;;;3.15;1.88;;;;;;;;;;5053133;28;20090;-38
2022/07/18 00:10:24;;;;;;;3.97;1.92;;;;;;;;;;5053214;28;20021;-43
2022/07/18 00:12:50;;;;;;;5.82;3.47;;;;;;;;;;5052815;28;20477;-39
2022/07/18 00:15:16;;;;;;;3.50;1.50;;;;;;;;;;5052795;28;20029;-39
2022/07/18 00:17:43;;;;;;;5.28;2.17;;;;;;;;;;5052708;28;20055;-38
2022/07/18 00:20:10;;;;;;;4.70;2.03;;;;;;;;;;5053014;28;20033;-39
2022/07/18 00:22:36;;;;;;;3.70;1.90;;;;;;;;;;5051828;28;20072;-39
2022/07/18 00:25:03;;;;;;;4.90;1.88;;;;;;;;;;5052993;28;20068;-38
2022/07/18 00:27:29;;;;;;;2.95;1.42;;;;;;;;;;5052675;28;20095;-38
2022/07/18 00:29:55;;;;;;;4.47;1.92;;;;;;;;;;5053801;28;20029;-37
2022/07/18 00:32:21;;;;;;;1.65;1.42;;;;;;;;;;5052486;28;20350;-38
2022/07/18 00:34:47;;;;;;;4.85;2.42;;;;;;;;;;5053004;28;20025;-38
2022/07/18 00:37:13;;;;;;;5.40;2.05;;;;;;;;;;5053342;28;20082;-39
2022/07/18 00:39:39;;;;;;;2.90;1.20;;;;;;;;;;5052705;28;20025;-38
2022/07/18 00:42:05;;;;;;;3.80;2.15;;;;;;;;;;5052669;28;20492;-39
2022/07/18 00:44:31;;;;;;;4.70;1.75;;;;;;;;;;5052906;28;20083;-38
2022/07/18 00:46:58;;;;;;;3.28;1.80;;;;;;;;;;5053185;28;20017;-39
2022/07/18 00:49:25;;;;;;;6.40;2.10;;;;;;;;;;5053079;28;20124;-38
2022/07/18 00:51:51;;;;;;;5.47;2.40;;;;;;;;;;5055557;28;20029;-38
2022/07/18 00:54:17;;;;;;;6.45;2.25;;;;;;;;;;5056624;28;20087;-39
2022/07/18 00:56:44;;;;;;;5.63;2.15;;;;;;;;;;5056629;28;20029;-39
2022/07/18 00:59:10;;;;;;;6.00;3.10;;;;;;;;;;5056207;28;20032;-38
2022/07/18 01:01:43;;;;;;;6.57;2.17;;;;;;;;;;5056436;28;20495;-39
2022/07/18 01:04:14;;;;;;;3.08;1.58;;;;;;;;;;5054749;28;20073;-38
2022/07/18 01:06:40;;;;;;;4.07;2.20;;;;;;;;;;5055829;28;20047;-38
2022/07/18 01:09:06;;;;;;;4.97;1.98;;;;;;;;;;5056533;28;20029;-38
2022/07/18 01:11:34;;;;;;;3.13;1.50;;;;;;;;;;5056155;28;20021;-42
2022/07/18 01:14:01;;;;;;;3.72;2.00;;;;;;;;;;5054679;28;20107;-39
2022/07/18 01:16:27;;;;;;;6.45;2.25;;;;;;;;;;5056246;28;20029;-38
2022/07/18 01:18:54;;;;;;;3.38;2.15;;;;;;;;;;5056709;28;20071;-39
2022/07/18 01:21:20;;;;;;;4.05;2.00;;;;;;;;;;5056345;28;20041;-39
2022/07/18 01:23:46;;;;;;;4.90;1.83;;;;;;;;;;5056388;28;20114;-38
2022/07/18 01:26:13;;;;;;;6.15;1.85;;;;;;;;;;5055996;28;20032;-38
2022/07/18 01:28:39;;;;;;;6.07;2.03;;;;;;;;;;5056766;28;20024;-38
2022/07/18 01:31:06;;;;;;;7.25;1.92;;;;;;;;;;5057577;28;20062;-39
2022/07/18 01:33:33;;;;;;;8.70;2.22;;;;;;;;;;5055351;28;20035;-39
2022/07/18 01:36:00;;;;;;;2.00;1.70;;;;;;;;;;5056524;28;20067;-40
2022/07/18 01:38:27;;;;;;;2.47;1.73;;;;;;;;;;5055546;28;20456;-39
2022/07/18 01:40:53;;;;;;;9.70;2.20;;;;;;;;;;5055722;28;20036;-39
2022/07/18 01:43:19;;;;;;;5.90;2.08;;;;;;;;;;5056035;28;20083;-39
2022/07/18 01:45:45;;;;;;;3.88;1.80;;;;;;;;;;5056103;28;20059;-37
2022/07/18 01:48:11;;;;;;;5.50;1.88;;;;;;;;;;5055947;28;20028;-39
2022/07/18 01:50:37;;;;;;;4.35;2.20;;;;;;;;;;5056416;28;20449;-38
2022/07/18 01:53:03;;;;;;;5.22;2.15;;;;;;;;;;5055143;28;20036;-38
2022/07/18 01:55:29;;;;;;;3.85;2.28;;;;;;;;;;5055616;28;20028;-39
2022/07/18 01:57:55;;;;;;;4.10;1.92;;;;;;;;;;5055110;28;20358;-39
2022/07/18 02:00:21;;;;;;;6.70;1.98;;;;;;;;;;5055080;28;20033;-39
2022/07/18 02:02:47;;;;;;;4.38;1.83;;;;;;;;;;5054848;28;20076;-38
2022/07/18 02:05:13;;;;;;;4.05;2.35;;;;;;;;;;5055182;28;20071;-38
2022/07/18 02:07:40;;;;;;;7.28;2.25;;;;;;;;;;5055368;28;20032;-38
2022/07/18 02:10:07;;;;;;;5.43;2.50;;;;;;;;;;5055143;28;20499;-38
2022/07/18 02:12:33;;;;;;;6.28;2.15;;;;;;;;;;5054875;28;20036;-38
2022/07/18 02:14:59;;;;;;;5.97;2.28;;;;;;;;;;5055371;28;20021;-38
2022/07/18 02:17:25;;;;;;;5.90;2.03;;;;;;;;;;5055108;28;20029;-38
2022/07/18 02:19:51;;;;;;;6.53;1.73;;;;;;;;;;5055657;28;20052;-38
2022/07/18 02:22:17;;;;;;;5.63;2.45;;;;;;;;;;5054983;28;20035;-38
2022/07/18 02:24:43;;;;;;;3.90;2.13;;;;;;;;;;5054734;28;20021;-38
2022/07/18 02:27:09;;;;;;;7.22;2.15;;;;;;;;;;5054864;28;20025;-38
2022/07/18 02:29:35;;;;;;;8.68;2.30;;;;;;;;;;5054751;28;20380;-39
2022/07/18 02:32:01;;;;;;;9.05;2.58;;;;;;;;;;5054937;28;20550;-39
2022/07/18 02:34:28;;;;;;;5.30;1.92;;;;;;;;;;5055156;28;20492;-38
2022/07/18 02:36:54;;;;;;;6.50;2.92;;;;;;;;;;5055408;28;20464;-38
2022/07/18 02:39:20;;;;;;;5.68;1.98;;;;;;;;;;5054684;28;20025;-39
2022/07/18 02:41:46;;;;;;;5.68;2.22;;;;;;;;;;5054930;28;20132;-38
2022/07/18 02:44:12;;;;;;;7.63;2.95;;;;;;;;;;5054991;28;20587;-48
2022/07/18 02:46:38;;;;;;;5.40;1.92;;;;;;;;;;5054600;28;20057;-38
2022/07/18 02:49:04;;;;;;;4.43;1.90;;;;;;;;;;5054238;28;20100;-39
2022/07/18 02:51:30;;;;;;;4.07;1.90;;;;;;;;;;5054487;28;20542;-38
2022/07/18 02:53:56;;;;;;;8.68;2.55;;;;;;;;;;5054205;28;20063;-38
2022/07/18 02:56:22;;;;;;;6.38;2.88;;;;;;;;;;5053190;28;20025;-38
2022/07/18 02:58:48;;;;;;;7.50;3.15;;;;;;;;;;5053947;28;20075;-38
2022/07/18 03:01:14;;;;;;;11.57;2.47;;;;;;;;;;5053970;28;20036;-38
2022/07/18 03:03:40;;;;;;;8.52;2.85;;;;;;;;;;5053531;28;20055;-38
2022/07/18 03:06:06;;;;;;;6.90;2.45;;;;;;;;;;5052681;28;20025;-38
2022/07/18 03:08:32;;;;;;;2.65;1.77;;;;;;;;;;5053259;28;20028;-38
2022/07/18 03:10:58;;;;;;;7.90;2.45;;;;;;;;;;5053973;28;20035;-39
2022/07/18 03:13:24;;;;;;;4.20;2.38;;;;;;;;;;5053099;28;20033;-39
2022/07/18 03:15:50;;;;;;;4.35;2.35;;;;;;;;;;5053630;28;20421;-39
2022/07/18 20:04:54;;;;;;;9.20;4.88;;;;;;;;;;5111111;27;20380;-40
2022/07/18 20:07:21;;;;;;;14.73;4.40;;;;;;;;;;5111779;28;20054;-39
2022/07/18 20:09:47;;;;;;;7.25;3.35;;;;;;;;;;5111232;28;20032;-39
2022/07/18 20:12:13;;;;;;;11.65;3.00;;;;;;;;;;5111615;28;20024;-40
2022/07/18 20:14:39;;;;;;;6.43;2.95;;;;;;;;;;5111478;28;20061;-39
2022/07/18 20:17:06;;;;;;;7.07;2.88;;;;;;;;;;5111339;28;20073;-39
2022/07/18 20:19:32;;;;;;;5.00;2.55;;;;;;;;;;5111172;28;20127;-41
2022/07/18 20:21:58;;;;;;;8.77;3.15;;;;;;;;;;5111067;28;20028;-40
2022/07/18 20:24:24;;;;;;;4.65;2.45;;;;;;;;;;5126791;28;20387;-49
2022/07/18 20:26:50;;;;;;;9.38;3.05;;;;;;;;;;5111425;28;20472;-40
2022/07/18 20:29:16;;;;;;;6.50;3.33;;;;;;;;;;5111762;28;20421;-39
2022/07/18 20:31:42;;;;;;;10.60;3.15;;;;;;;;;;5112778;28;20034;-40
2022/07/18 20:34:08;;;;;;;4.30;2.80;;;;;;;;;;5126966;28;20470;-39
2022/07/18 20:36:34;;;;;;;5.88;2.85;;;;;;;;;;5110843;28;20058;-39
2022/07/18 20:39:01;;;;;;;7.45;3.22;;;;;;;;;;5115048;28;20089;-39
2022/07/18 20:41:28;;;;;;;5.80;3.03;;;;;;;;;;5110599;28;20024;-40
2022/07/18 20:43:57;;;;;;;6.25;2.95;;;;;;;;;;5110612;28;20455;-38
2022/07/18 20:46:24;;;;;;;5.38;3.47;;;;;;;;;;5110820;28;20417;-38
2022/07/18 20:48:50;;;;;;;6.53;3.90;;;;;;;;;;5110114;28;20024;-39
2022/07/18 20:51:16;;;;;;;8.25;3.65;;;;;;;;;;5109070;28;20028;-38
2022/07/18 20:53:43;;;;;;;8.55;4.43;;;;;;;;;;5110105;28;20031;-38
2022/07/18 20:56:10;;;;;;;8.32;3.47;;;;;;;;;;5110195;28;20020;-38
2022/07/18 20:58:36;;;;;;;7.20;4.38;;;;;;;;;;5110599;28;20169;-39
2022/07/18 21:01:03;;;;;;;13.43;6.15;;;;;;;;;;5110375;28;20063;-39
2022/07/18 21:03:29;;;;;;;10.80;5.40;;;;;;;;;;5109899;28;20085;-38
2022/07/18 21:05:55;;;;;;;14.10;5.40;;;;;;;;;;5110051;28;20039;-38
2022/07/18 21:08:21;;;;;;;9.32;4.55;;;;;;;;;;5110020;28;20085;-38
2022/07/18 21:10:47;;;;;;;7.32;4.07;;;;;;;;;;5117090;28;20016;-47
2022/07/18 21:13:13;;;;;;;9.90;3.78;;;;;;;;;;5110615;28;20028;-48
2022/07/18 21:15:39;;;;;;;5.65;3.42;;;;;;;;;;5100326;28;20077;-47
2022/07/18 21:18:06;;;;;;;7.65;3.38;;;;;;;;;;5096498;28;20085;-49
2022/07/18 21:20:32;;;;;;;6.97;3.42;;;;;;;;;;5096564;28;20074;-47
2022/07/18 21:22:58;;;;;;;9.95;3.88;;;;;;;;;;5097525;28;20020;-38
2022/07/18 21:25:25;;;;;;;10.48;3.90;;;;;;;;;;5096067;28;20103;-40
2022/07/18 21:27:51;;;;;;;5.45;2.92;;;;;;;;;;5096253;28;20024;-38
2022/07/18 21:30:18;;;;;;;6.68;3.63;;;;;;;;;;5096932;28;20456;-39
2022/07/18 21:32:45;;;;;;;5.07;3.13;;;;;;;;;;5096607;28;20031;-39
2022/07/18 21:35:11;;;;;;;7.88;3.20;;;;;;;;;;5096240;28;20491;-40
2022/07/18 21:37:37;;;;;;;8.02;3.58;;;;;;;;;;5095786;28;20020;-39
2022/07/18 21:40:04;;;;;;;7.25;4.30;;;;;;;;;;5096141;28;20093;-42
2022/07/18 21:42:30;;;;;;;7.57;4.00;;;;;;;;;;5096067;28;20025;-39
2022/07/18 21:44:57;;;;;;;9.35;3.53;;;;;;;;;;5096916;28;20092;-38
2022/07/18 21:47:24;;;;;;;7.32;3.97;;;;;;;;;;5095993;28;20460;-39
2022/07/18 21:49:51;;;;;;;7.38;3.55;;;;;;;;;;5096413;28;20043;-39
2022/07/18 21:52:17;;;;;;;6.15;3.58;;;;;;;;;;5096254;28;20020;-40
2022/07/18 21:54:44;;;;;;;7.80;3.72;;;;;;;;;;5095621;28;20047;-38
2022/07/18 21:57:10;;;;;;;6.80;4.35;;;;;;;;;;5095729;28;20050;-39
2022/07/18 21:59:36;;;;;;;15.60;5.85;;;;;;;;;;5095693;28;20080;-38
2022/07/18 22:02:02;;;;;;;12.57;4.50;;;;;;;;;;5095365;28;20387;-39
2022/07/18 22:04:28;;;;;;;5.60;4.32;;;;;;;;;;5093767;28;20040;-40
2022/07/18 22:06:54;;;;;;;7.22;3.97;;;;;;;;;;5095228;28;20024;-38
2022/07/18 22:09:20;;;;;;;7.85;4.03;;;;;;;;;;5094207;28;20024;-39
2022/07/18 22:11:47;;;;;;;9.77;4.70;;;;;;;;;;5095199;28;20026;-39
2022/07/18 22:14:14;;;;;;;7.38;4.45;;;;;;;;;;5093680;28;20476;-38
2022/07/18 22:16:41;;;;;;;8.35;4.40;;;;;;;;;;5095356;28;20050;-40
2022/07/18 22:19:07;;;;;;;8.98;4.10;;;;;;;;;;5095075;28;20024;-40
2022/07/18 22:21:33;;;;;;;8.57;3.85;;;;;;;;;;5095055;28;20039;-39
2022/07/18 22:23:59;;;;;;;7.53;4.25;;;;;;;;;;5094825;28;20379;-38
2022/07/18 22:26:25;;;;;;;13.25;4.93;;;;;;;;;;5094125;28;20108;-39
2022/07/18 22:28:52;;;;;;;5.30;3.95;;;;;;;;;;5095080;28;20020;-39
2022/07/18 22:31:18;;;;;;;5.65;3.45;;;;;;;;;;5094771;28;20110;-38
2022/07/18 22:33:44;;;;;;;8.07;4.45;;;;;;;;;;5093756;28;20506;-39
2022/07/18 22:36:10;;;;;;;7.85;3.50;;;;;;;;;;5093343;28;20024;-40
2022/07/18 22:38:36;;;;;;;5.20;3.50;;;;;;;;;;5094782;28;20043;-38
2022/07/18 22:41:03;;;;;;;10.77;4.32;;;;;;;;;;5094779;28;20394;-39
2022/07/18 22:43:29;;;;;;;7.70;4.38;;;;;;;;;;5095001;28;20020;-39
2022/07/18 22:45:55;;;;;;;10.02;5.78;;;;;;;;;;5094898;28;20091;-39
2022/07/18 22:48:21;;;;;;;9.38;4.85;;;;;;;;;;5094503;28;20028;-38
2022/07/18 22:50:47;;;;;;;12.02;3.88;;;;;;;;;;5094473;28;20070;-39
2022/07/18 22:53:13;;;;;;;8.32;3.80;;;;;;;;;;5093102;28;20028;-38
2022/07/18 22:55:40;;;;;;;5.53;3.90;;;;;;;;;;5094825;28;20046;-39
2022/07/18 22:58:06;;;;;;;14.52;4.15;;;;;;;;;;5095052;28;20041;-39
2022/07/18 23:00:32;;;;;;;10.55;4.40;;;;;;;;;;5096497;28;20027;-38
2022/07/18 23:02:58;;;;;;;9.98;4.22;;;;;;;;;;5094556;28;20459;-39
2022/07/18 23:05:25;;;;;;;5.78;3.70;;;;;;;;;;5092905;28;20020;-38
2022/07/18 23:08:00;;;;;;;5.18;3.20;;;;;;;;;;5092833;28;20020;-39
2022/07/18 23:10:27;;;;;;;4.30;3.40;;;;;;;;;;5092781;28;20051;-39
2022/07/18 23:12:54;;;;;;;8.30;3.40;;;;;;;;;;5094048;28;20121;-39
2022/07/18 23:15:21;;;;;;;5.93;2.92;;;;;;;;;;5092720;28;20024;-39
2022/07/18 23:17:47;;;;;;;5.00;3.03;;;;;;;;;;5092692;28;20035;-38
2022/07/18 23:20:13;;;;;;;11.20;5.72;;;;;;;;;;5094343;28;20046;-39
2022/07/18 23:22:40;;;;;;;9.23;4.07;;;;;;;;;;5094181;28;20494;-38
2022/07/18 23:25:07;;;;;;;6.30;2.97;;;;;;;;;;5094948;28;20020;-38
2022/07/18 23:27:33;;;;;;;4.35;3.17;;;;;;;;;;5094278;28;20412;-38
2022/07/18 23:29:59;;;;;;;4.82;2.55;;;;;;;;;;5093499;28;20027;-38
2022/07/18 23:32:25;;;;;;;5.00;3.45;;;;;;;;;;5094370;28;20020;-38
2022/07/18 23:34:51;;;;;;;5.90;3.33;;;;;;;;;;5093200;28;20392;-39
2022/07/18 23:37:17;;;;;;;8.27;3.33;;;;;;;;;;5093736;28;20027;-39
2022/07/18 23:39:44;;;;;;;5.13;3.10;;;;;;;;;;5093534;28;20032;-38
2022/07/18 23:42:10;;;;;;;6.50;3.90;;;;;;;;;;5094014;28;20032;-38
2022/07/18 23:44:36;;;;;;;7.88;3.22;;;;;;;;;;5094280;28;20039;-38
2022/07/18 23:47:02;;;;;;;4.97;2.50;;;;;;;;;;5094343;28;20028;-38
2022/07/18 23:49:29;;;;;;;5.93;2.95;;;;;;;;;;5092681;28;20027;-38
2022/07/18 23:51:58;;;;;;;11.18;3.70;;;;;;;;;;5093741;28;20509;-39
2022/07/18 23:54:24;;;;;;;7.77;3.90;;;;;;;;;;5092041;28;20476;-39
2022/07/18 23:56:51;;;;;;;6.38;3.78;;;;;;;;;;5093495;28;20379;-40
2022/07/18 23:59:17;;;;;;;8.55;4.10;;;;;;;;;;5092291;28;20122;-39
